createdAt,value
2017-09-26T00:01:08.062Z,12.50
2017-09-26T00:03:37.192Z,12.30
2017-09-26T00:06:06.437Z,12.20
2017-09-26T00:08:35.620Z,12.20
2017-09-26T00:11:04.791Z,12.20
2017-09-26T00:13:33.220Z,12.20
2017-09-26T00:16:02.344Z,12.20
2017-09-26T00:18:30.759Z,12.20
2017-09-26T00:20:59.108Z,12.10
2017-09-26T00:23:27.403Z,12.10
2017-09-26T00:25:55.695Z,12.20
2017-09-26T00:28:24.091Z,12.30
2017-09-26T00:30:53.184Z,12.30
2017-09-26T00:33:22.528Z,12.30
2017-09-26T00:35:51.592Z,12.30
2017-09-26T00:38:19.891Z,12.30
2017-09-26T00:40:48.225Z,12.20
2017-09-26T00:43:16.528Z,12.30
2017-09-26T00:45:44.851Z,12.20
2017-09-26T00:48:13.953Z,12.20
2017-09-26T00:50:42.274Z,12.20
2017-09-26T00:53:10.655Z,12.30
2017-09-26T00:55:39.179Z,12.40
2017-09-26T00:58:07.623Z,12.40
2017-09-26T01:00:39.395Z,12.50
2017-09-26T01:03:07.772Z,12.50
2017-09-26T01:05:36.774Z,12.60
2017-09-26T01:08:05.124Z,12.50
2017-09-26T01:10:33.554Z,12.40
2017-09-26T01:13:01.915Z,12.40
2017-09-26T01:15:31.003Z,12.40
2017-09-26T01:17:59.343Z,12.30
2017-09-26T01:20:28.442Z,12.50
2017-09-26T01:22:56.816Z,12.50
2017-09-26T01:25:25.156Z,12.50
2017-09-26T01:27:53.511Z,12.50
2017-09-26T01:30:21.940Z,12.40
2017-09-26T01:32:50.247Z,12.40
2017-09-26T01:35:18.553Z,12.40
2017-09-26T01:37:47.014Z,12.40
2017-09-26T01:40:15.307Z,12.40
2017-09-26T01:42:43.598Z,12.40
2017-09-26T01:45:11.959Z,12.50
2017-09-26T01:47:40.303Z,12.50
2017-09-26T01:50:08.646Z,12.60
2017-09-26T01:52:37.140Z,12.70
2017-09-26T01:55:05.563Z,12.60
2017-09-26T01:57:50.284Z,12.60
2017-09-26T02:00:19.376Z,12.60
2017-09-26T02:02:47.680Z,12.60
2017-09-26T02:05:16.022Z,12.60
2017-09-26T02:07:44.332Z,12.50
2017-09-26T02:10:12.656Z,12.50
2017-09-26T02:12:40.951Z,12.50
2017-09-26T02:15:09.277Z,12.50
2017-09-26T02:17:37.786Z,12.50
2017-09-26T02:20:06.204Z,12.60
2017-09-26T02:22:35.409Z,12.60
2017-09-26T02:25:04.729Z,12.60
2017-09-26T02:27:33.852Z,12.60
2017-09-26T02:30:02.220Z,12.60
2017-09-26T02:32:30.571Z,12.60
2017-09-26T02:34:58.904Z,12.60
2017-09-26T02:37:28.000Z,12.60
2017-09-26T02:39:56.507Z,12.60
2017-09-26T02:42:24.967Z,12.60
2017-09-26T02:44:53.286Z,12.60
2017-09-26T02:47:21.655Z,12.60
2017-09-26T02:49:50.736Z,12.60
2017-09-26T02:52:19.067Z,12.60
2017-09-26T02:54:48.132Z,12.70
2017-09-26T02:57:16.460Z,12.70
2017-09-26T02:59:44.764Z,12.70
2017-09-26T03:02:13.086Z,12.70
2017-09-26T03:04:41.379Z,12.60
2017-09-26T03:07:09.839Z,12.60
2017-09-26T03:09:38.236Z,12.60
2017-09-26T03:12:06.675Z,12.60
2017-09-26T03:14:35.236Z,12.60
2017-09-26T03:17:04.233Z,12.60
2017-09-26T03:19:34.391Z,12.70
2017-09-26T03:22:02.756Z,12.70
2017-09-26T03:24:31.155Z,12.70
2017-09-26T03:26:59.484Z,12.80
2017-09-26T03:29:27.775Z,12.80
2017-09-26T03:31:57.576Z,12.90
2017-09-26T03:34:25.907Z,12.90
2017-09-26T03:36:55.743Z,12.80
2017-09-26T03:39:24.043Z,12.80
2017-09-26T03:41:52.408Z,12.80
2017-09-26T03:44:20.762Z,12.80
2017-09-26T03:46:49.828Z,12.90
2017-09-26T03:49:18.155Z,12.80
2017-09-26T03:51:46.452Z,12.90
2017-09-26T03:54:14.776Z,12.80
2017-09-26T03:56:43.104Z,12.90
2017-09-26T03:59:12.188Z,12.80
2017-09-26T04:01:40.503Z,12.80
2017-09-26T04:04:08.878Z,12.90
2017-09-26T04:06:37.240Z,12.90
2017-09-26T04:09:06.927Z,12.90
2017-09-26T04:11:35.436Z,12.90
2017-09-26T04:14:03.740Z,12.90
2017-09-26T04:16:32.148Z,12.90
2017-09-26T04:19:00.483Z,12.90
2017-09-26T04:21:29.575Z,12.90
2017-09-26T04:23:57.972Z,12.90
2017-09-26T04:26:26.378Z,13.00
2017-09-26T04:28:54.721Z,12.90
2017-09-26T04:31:23.784Z,12.90
2017-09-26T04:33:52.132Z,12.80
2017-09-26T04:36:21.246Z,13.00
2017-09-26T04:38:51.049Z,13.00
2017-09-26T04:41:19.472Z,13.00
2017-09-26T04:43:47.764Z,13.00
2017-09-26T04:46:16.068Z,13.10
2017-09-26T04:48:44.583Z,13.00
2017-09-26T04:51:12.982Z,12.90
2017-09-26T04:53:41.388Z,12.90
2017-09-26T04:56:09.719Z,13.00
2017-09-26T04:58:38.788Z,13.00
2017-09-26T05:01:07.121Z,12.90
2017-09-26T05:03:36.935Z,13.00
2017-09-26T05:06:05.451Z,13.00
2017-09-26T05:08:33.856Z,13.10
2017-09-26T05:11:02.260Z,13.10
2017-09-26T05:13:30.667Z,13.10
2017-09-26T05:16:00.498Z,13.10
2017-09-26T05:18:28.797Z,13.10
2017-09-26T05:20:57.195Z,13.10
2017-09-26T05:23:25.492Z,13.20
2017-09-26T05:25:53.796Z,13.10
2017-09-26T05:28:22.148Z,13.00
2017-09-26T05:30:51.244Z,13.10
2017-09-26T05:33:20.455Z,13.10
2017-09-26T05:35:48.763Z,13.10
2017-09-26T05:38:17.102Z,13.10
2017-09-26T05:40:46.173Z,13.20
2017-09-26T05:43:14.459Z,13.20
2017-09-26T05:45:42.891Z,13.20
2017-09-26T05:48:11.196Z,13.30
2017-09-26T05:50:39.625Z,13.40
2017-09-26T05:53:09.448Z,13.30
2017-09-26T05:55:37.852Z,13.30
2017-09-26T05:58:06.191Z,13.30
2017-09-26T06:00:34.536Z,13.40
2017-09-26T06:03:02.855Z,13.30
2017-09-26T06:05:31.187Z,13.30
2017-09-26T06:08:00.248Z,13.40
2017-09-26T06:10:28.567Z,13.40
2017-09-26T06:12:56.900Z,13.50
2017-09-26T06:15:25.956Z,13.50
2017-09-26T06:17:54.279Z,13.50
2017-09-26T06:20:22.636Z,13.50
2017-09-26T06:22:51.002Z,13.50
2017-09-26T06:25:19.292Z,13.50
2017-09-26T06:27:47.611Z,13.50
2017-09-26T06:30:16.012Z,13.60
2017-09-26T06:32:44.351Z,13.70
2017-09-26T06:35:13.427Z,13.80
2017-09-26T06:37:41.736Z,13.80
2017-09-26T06:40:10.151Z,13.70
2017-09-26T06:42:39.219Z,13.80
2017-09-26T06:45:07.609Z,13.70
2017-09-26T06:47:35.923Z,13.70
2017-09-26T06:50:04.312Z,13.70
2017-09-26T06:52:32.763Z,13.80
2017-09-26T06:55:01.055Z,13.80
2017-09-26T06:57:29.367Z,13.90
2017-09-26T06:59:57.706Z,13.90
2017-09-26T07:02:26.763Z,14.10
2017-09-26T07:04:55.087Z,14.10
2017-09-26T07:07:23.408Z,14.20
2017-09-26T07:09:51.738Z,14.30
2017-09-26T07:12:20.892Z,14.40
2017-09-26T07:14:49.186Z,14.40
2017-09-26T07:17:17.515Z,14.30
2017-09-26T07:19:45.798Z,14.40
2017-09-26T07:22:14.337Z,14.40
2017-09-26T07:24:42.635Z,14.50
2017-09-26T07:27:10.929Z,14.50
2017-09-26T07:29:39.280Z,14.50
2017-09-26T07:32:07.646Z,14.50
2017-09-26T07:34:36.238Z,14.50
2017-09-26T07:37:05.372Z,14.60
2017-09-26T07:39:33.763Z,14.60
2017-09-26T07:42:02.144Z,14.70
2017-09-26T07:44:30.440Z,14.80
2017-09-26T07:46:58.764Z,14.80
2017-09-26T07:49:27.060Z,14.90
2017-09-26T07:51:55.379Z,14.80
2017-09-26T07:54:23.692Z,14.70
2017-09-26T07:56:52.051Z,14.90
2017-09-26T07:59:20.385Z,15.00
2017-09-26T08:01:48.716Z,15.00
2017-09-26T08:04:18.264Z,15.10
2017-09-26T08:06:47.619Z,15.20
2017-09-26T08:09:16.508Z,15.20
2017-09-26T08:11:45.696Z,15.10
2017-09-26T08:14:14.096Z,15.10
2017-09-26T08:16:42.496Z,15.00
2017-09-26T08:19:10.828Z,14.90
2017-09-26T08:21:39.892Z,14.80
2017-09-26T08:24:08.337Z,14.80
2017-09-26T08:26:36.731Z,14.90
2017-09-26T08:29:05.074Z,14.80
2017-09-26T08:31:33.747Z,14.90
2017-09-26T08:34:02.035Z,14.70
2017-09-26T08:36:30.688Z,14.60
2017-09-26T08:38:59.780Z,14.70
2017-09-26T08:41:28.076Z,14.70
2017-09-26T08:43:56.475Z,14.70
2017-09-26T08:46:24.880Z,14.90
2017-09-26T08:48:53.244Z,15.00
2017-09-26T08:51:21.548Z,15.00
2017-09-26T08:53:49.873Z,15.20
2017-09-26T08:56:18.163Z,15.20
2017-09-26T08:58:46.492Z,15.30
2017-09-26T09:01:14.900Z,15.30
2017-09-26T09:03:43.243Z,15.20
2017-09-26T09:06:12.300Z,15.30
2017-09-26T09:08:40.591Z,15.30
2017-09-26T09:11:09.027Z,15.30
2017-09-26T09:13:37.459Z,15.30
2017-09-26T09:16:06.551Z,15.40
2017-09-26T09:18:34.882Z,15.40
2017-09-26T09:21:04.780Z,15.60
2017-09-26T09:23:33.417Z,15.70
2017-09-26T09:26:01.743Z,15.70
2017-09-26T09:28:30.840Z,16.00
2017-09-26T09:30:59.183Z,16.00
2017-09-26T09:33:27.472Z,15.80
2017-09-26T09:35:55.767Z,15.70
2017-09-26T09:38:24.859Z,15.80
2017-09-26T09:40:53.146Z,15.80
2017-09-26T09:43:21.671Z,15.90
2017-09-26T09:45:49.964Z,16.10
2017-09-26T09:48:18.260Z,16.10
2017-09-26T09:50:46.767Z,16.20
2017-09-26T09:53:15.051Z,16.30
2017-09-26T09:55:43.347Z,16.20
2017-09-26T09:58:11.771Z,16.20
2017-09-26T10:00:40.068Z,16.20
2017-09-26T10:03:08.381Z,16.10
2017-09-26T10:05:36.730Z,16.10
2017-09-26T10:08:05.141Z,16.00
2017-09-26T10:10:33.520Z,16.10
2017-09-26T10:13:02.620Z,16.30
2017-09-26T10:15:31.012Z,16.30
2017-09-26T10:17:59.343Z,16.20
2017-09-26T10:20:28.403Z,16.40
2017-09-26T10:22:56.736Z,16.40
2017-09-26T10:25:25.145Z,16.30
2017-09-26T10:27:53.463Z,16.20
2017-09-26T10:30:21.754Z,16.20
2017-09-26T10:32:50.144Z,16.20
2017-09-26T10:35:18.439Z,16.20
2017-09-26T10:37:46.767Z,16.20
2017-09-26T10:40:15.871Z,16.30
2017-09-26T10:42:44.163Z,16.30
2017-09-26T10:45:12.493Z,16.40
2017-09-26T10:47:40.878Z,16.40
2017-09-26T10:50:09.168Z,16.30
2017-09-26T10:52:37.508Z,16.30
2017-09-26T10:55:05.829Z,16.30
2017-09-26T10:57:34.435Z,16.30
2017-09-26T11:00:02.796Z,16.30
2017-09-26T11:02:31.201Z,16.10
2017-09-26T11:04:59.599Z,16.10
2017-09-26T11:07:28.003Z,16.10
2017-09-26T11:09:56.304Z,16.20
2017-09-26T11:12:24.629Z,16.20
2017-09-26T11:14:52.956Z,16.30
2017-09-26T11:17:22.063Z,16.40
2017-09-26T11:19:51.154Z,16.20
2017-09-26T11:22:19.448Z,16.20
2017-09-26T11:24:47.776Z,16.30
2017-09-26T11:27:16.100Z,16.30
2017-09-26T11:29:45.279Z,16.40
2017-09-26T11:32:13.613Z,16.40
2017-09-26T11:34:41.903Z,16.50
2017-09-26T11:37:11.724Z,16.60
2017-09-26T11:39:40.051Z,16.70
2017-09-26T11:42:08.356Z,16.80
2017-09-26T11:44:36.769Z,16.70
2017-09-26T11:47:05.128Z,16.60
2017-09-26T11:49:33.607Z,16.70
2017-09-26T11:52:01.911Z,16.90
2017-09-26T11:54:30.236Z,16.90
2017-09-26T11:56:58.648Z,16.90
2017-09-26T11:59:26.971Z,16.70
2017-09-26T12:01:55.296Z,16.70
2017-09-26T12:04:24.346Z,16.70
2017-09-26T12:06:52.781Z,16.70
2017-09-26T12:09:21.082Z,16.70
2017-09-26T12:11:50.920Z,16.60
2017-09-26T12:14:19.320Z,16.70
2017-09-26T12:16:47.654Z,16.70
2017-09-26T12:19:16.729Z,16.90
2017-09-26T12:21:45.011Z,16.90
2017-09-26T12:24:13.442Z,16.90
2017-09-26T12:26:41.736Z,16.70
2017-09-26T12:29:10.059Z,16.70
2017-09-26T12:31:38.423Z,16.80
2017-09-26T12:34:06.735Z,16.80
2017-09-26T12:36:35.079Z,16.80
2017-09-26T12:39:03.376Z,17.10
2017-09-26T12:41:32.485Z,17.10
2017-09-26T12:44:00.876Z,17.10
2017-09-26T12:46:29.387Z,17.00
2017-09-26T12:48:58.611Z,16.90
2017-09-26T12:51:26.908Z,16.80
2017-09-26T12:53:55.236Z,17.00
2017-09-26T12:56:23.532Z,17.20
2017-09-26T12:58:51.870Z,17.20
2017-09-26T13:01:20.195Z,17.20
2017-09-26T13:03:48.487Z,17.10
2017-09-26T13:06:16.831Z,17.20
2017-09-26T13:08:45.128Z,17.20
2017-09-26T13:11:13.535Z,17.10
2017-09-26T13:13:41.942Z,17.00
2017-09-26T13:16:10.264Z,16.90
2017-09-26T13:18:38.747Z,16.80
2017-09-26T13:21:07.056Z,16.80
2017-09-26T13:23:36.913Z,16.70
2017-09-26T13:26:05.268Z,16.70
2017-09-26T13:28:33.620Z,16.60
2017-09-26T13:31:02.706Z,16.40
2017-09-26T13:33:31.052Z,16.40
2017-09-26T13:36:00.135Z,16.40
2017-09-26T13:38:28.544Z,16.40
2017-09-26T13:40:56.944Z,16.50
2017-09-26T13:43:25.339Z,16.40
2017-09-26T13:45:53.643Z,16.40
2017-09-26T13:48:21.975Z,16.40
2017-09-26T13:50:50.278Z,16.50
2017-09-26T13:53:19.352Z,16.60
2017-09-26T13:55:47.680Z,16.60
2017-09-26T13:58:15.992Z,16.60
2017-09-26T14:00:44.316Z,16.60
2017-09-26T14:03:13.499Z,16.30
2017-09-26T14:05:41.810Z,16.30
2017-09-26T14:08:10.132Z,16.30
2017-09-26T14:10:39.225Z,16.20
2017-09-26T14:13:07.639Z,16.20
2017-09-26T14:15:35.980Z,16.20
2017-09-26T14:18:04.740Z,16.30
2017-09-26T14:20:33.028Z,16.20
2017-09-26T14:23:02.168Z,16.30
2017-09-26T14:25:30.455Z,16.30
2017-09-26T14:27:58.787Z,16.30
2017-09-26T14:30:27.076Z,16.30
2017-09-26T14:32:55.407Z,16.00
2017-09-26T14:35:24.504Z,15.90
2017-09-26T14:37:52.820Z,15.90
2017-09-26T14:40:21.923Z,15.80
2017-09-26T14:42:50.311Z,15.70
2017-09-26T14:45:18.678Z,15.70
2017-09-26T14:47:47.015Z,15.70
2017-09-26T14:50:15.335Z,15.70
2017-09-26T14:52:45.144Z,15.80
2017-09-26T14:55:13.472Z,15.90
2017-09-26T14:57:41.771Z,15.90
2017-09-26T15:00:10.101Z,15.90
2017-09-26T15:02:39.158Z,16.00
2017-09-26T15:05:07.496Z,16.00
2017-09-26T15:07:36.003Z,16.10
2017-09-26T15:10:04.341Z,16.10
2017-09-26T15:12:34.087Z,16.10
2017-09-26T15:15:02.441Z,16.10
2017-09-26T15:17:30.730Z,15.90
2017-09-26T15:19:59.077Z,15.90
2017-09-26T15:22:28.141Z,15.80
2017-09-26T15:24:56.440Z,15.80
2017-09-26T15:27:24.769Z,15.80
2017-09-26T15:29:53.180Z,15.70
2017-09-26T15:32:21.519Z,15.60
2017-09-26T15:34:49.816Z,15.50
2017-09-26T15:37:18.908Z,15.40
2017-09-26T15:39:47.206Z,15.40
2017-09-26T15:42:15.601Z,15.50
2017-09-26T15:44:44.015Z,15.50
2017-09-26T15:47:12.312Z,15.60
2017-09-26T15:49:40.640Z,15.60
2017-09-26T15:52:09.731Z,15.60
2017-09-26T15:54:38.032Z,15.60
2017-09-26T15:57:06.372Z,15.60
2017-09-26T15:59:35.492Z,15.50
2017-09-26T16:02:05.364Z,15.60
2017-09-26T16:04:33.724Z,15.60
2017-09-26T16:07:02.787Z,15.50
2017-09-26T16:09:31.081Z,15.50
2017-09-26T16:11:59.408Z,15.30
2017-09-26T16:14:27.732Z,15.30
2017-09-26T16:16:56.804Z,15.10
2017-09-26T16:19:25.243Z,15.10
2017-09-26T16:21:53.648Z,15.10
2017-09-26T16:24:21.979Z,15.10
2017-09-26T16:26:51.101Z,15.00
2017-09-26T16:29:20.200Z,15.10
2017-09-26T16:31:48.596Z,15.00
2017-09-26T16:34:17.104Z,14.90
2017-09-26T16:36:45.408Z,15.00
2017-09-26T16:39:13.713Z,15.00
2017-09-26T16:41:42.039Z,15.00
2017-09-26T16:44:11.332Z,14.80
2017-09-26T16:46:39.632Z,14.80
2017-09-26T16:49:07.923Z,14.80
2017-09-26T16:51:36.262Z,14.70
2017-09-26T16:54:05.364Z,14.60
2017-09-26T16:56:33.664Z,14.60
2017-09-26T16:59:02.159Z,14.70
2017-09-26T17:01:30.451Z,14.70
2017-09-26T17:03:58.744Z,14.60
2017-09-26T17:06:27.170Z,14.50
2017-09-26T17:08:55.464Z,14.50
2017-09-26T17:11:23.812Z,14.40
2017-09-26T17:13:52.927Z,14.40
2017-09-26T17:16:22.040Z,14.40
2017-09-26T17:18:51.152Z,14.50
2017-09-26T17:21:19.551Z,14.50
2017-09-26T17:23:47.843Z,14.50
2017-09-26T17:26:16.174Z,14.40
2017-09-26T17:28:44.484Z,14.40
2017-09-26T17:31:13.667Z,14.40
2017-09-26T17:33:41.960Z,14.40
2017-09-26T17:36:10.280Z,14.40
2017-09-26T17:38:38.783Z,14.40
2017-09-26T17:41:07.088Z,14.40
2017-09-26T17:43:35.399Z,14.50
2017-09-26T17:46:03.775Z,14.40
2017-09-26T17:48:32.087Z,14.40
2017-09-26T17:51:00.379Z,14.40
2017-09-26T17:53:28.712Z,14.40
2017-09-26T17:55:57.008Z,14.40
2017-09-26T17:58:25.308Z,14.30
2017-09-26T18:00:53.699Z,14.30
2017-09-26T18:03:22.039Z,14.30
2017-09-26T18:05:51.150Z,14.30
2017-09-26T18:08:19.528Z,14.20
2017-09-26T18:10:47.875Z,14.30
2017-09-26T18:13:16.952Z,14.20
2017-09-26T18:15:45.243Z,14.20
2017-09-26T18:18:13.756Z,14.30
2017-09-26T18:20:42.064Z,14.30
2017-09-26T18:23:10.521Z,14.30
2017-09-26T18:25:38.871Z,14.20
2017-09-26T18:28:07.176Z,14.10
2017-09-26T18:30:35.559Z,14.00
2017-09-26T18:33:03.940Z,14.00
2017-09-26T18:35:32.226Z,14.00
2017-09-26T18:38:00.564Z,14.10
2017-09-26T18:40:28.851Z,14.00
2017-09-26T18:42:57.184Z,14.10
2017-09-26T18:45:25.477Z,14.10
2017-09-26T18:47:53.784Z,14.10
2017-09-26T18:50:22.293Z,14.10
2017-09-26T18:52:50.700Z,14.10
2017-09-26T18:55:19.103Z,14.10
2017-09-26T18:57:47.447Z,14.00
2017-09-26T19:00:15.748Z,14.00
2017-09-26T19:02:44.799Z,14.10
2017-09-26T19:05:13.131Z,14.10
2017-09-26T19:07:41.424Z,14.10
2017-09-26T19:10:09.840Z,14.00
2017-09-26T19:12:38.163Z,13.90
2017-09-26T19:15:07.231Z,13.90
2017-09-26T19:17:35.746Z,13.80
2017-09-26T19:20:04.724Z,13.80
2017-09-26T19:22:33.979Z,13.90
2017-09-26T19:25:02.305Z,13.80
2017-09-26T19:27:31.392Z,13.80
2017-09-26T19:29:59.743Z,13.80
2017-09-26T19:32:28.036Z,13.80
2017-09-26T19:34:56.368Z,13.70
2017-09-26T19:37:25.452Z,13.70
2017-09-26T19:39:53.787Z,13.60
2017-09-26T19:42:22.853Z,13.70
2017-09-26T19:44:51.144Z,13.70
2017-09-26T19:47:19.580Z,13.60
2017-09-26T19:49:47.979Z,13.60
2017-09-26T19:52:16.323Z,13.70
2017-09-26T19:54:45.389Z,13.60
2017-09-26T19:57:13.681Z,13.60
2017-09-26T19:59:42.122Z,13.70
2017-09-26T20:02:10.497Z,13.60
2017-09-26T20:04:38.904Z,13.60
2017-09-26T20:07:07.412Z,13.60
2017-09-26T20:09:35.815Z,13.50
2017-09-26T20:12:04.300Z,13.50
2017-09-26T20:14:32.626Z,13.50
2017-09-26T20:17:01.744Z,13.30
2017-09-26T20:19:30.172Z,13.30
2017-09-26T20:22:00.120Z,13.40
2017-09-26T20:24:28.407Z,13.40
2017-09-26T20:26:56.807Z,13.40
2017-09-26T20:29:25.211Z,13.50
2017-09-26T20:31:53.681Z,13.40
2017-09-26T20:34:22.120Z,13.50
2017-09-26T20:36:50.455Z,13.50
2017-09-26T20:39:19.515Z,13.50
2017-09-26T20:41:47.840Z,13.40
2017-09-26T20:44:16.347Z,13.40
2017-09-26T20:46:44.644Z,13.30
2017-09-26T20:49:12.965Z,13.40
2017-09-26T20:51:41.304Z,13.30
2017-09-26T20:54:10.388Z,13.30
2017-09-26T20:56:38.680Z,13.30
2017-09-26T20:59:07.035Z,13.30
2017-09-26T21:01:35.389Z,13.30
2017-09-26T21:04:03.848Z,13.30
2017-09-26T21:06:32.174Z,13.40
2017-09-26T21:09:00.705Z,13.30
2017-09-26T21:11:30.516Z,13.20
2017-09-26T21:13:58.812Z,13.20
2017-09-26T21:16:27.244Z,13.30
2017-09-26T21:18:55.535Z,13.30
2017-09-26T21:21:23.860Z,13.20
2017-09-26T21:23:52.197Z,13.30
2017-09-26T21:26:20.536Z,13.20
2017-09-26T21:28:49.096Z,13.30
2017-09-26T21:31:17.464Z,13.30
2017-09-26T21:33:45.779Z,13.20
2017-09-26T21:36:15.585Z,13.10
2017-09-26T21:38:43.999Z,13.10
2017-09-26T21:41:12.407Z,13.20
2017-09-26T21:43:40.855Z,13.20
2017-09-26T21:46:09.999Z,13.30
2017-09-26T21:48:38.340Z,13.30
2017-09-26T21:51:06.852Z,13.30
2017-09-26T21:53:35.259Z,13.30
2017-09-26T21:56:03.668Z,13.30
2017-09-26T21:58:32.056Z,13.30
2017-09-26T22:01:00.459Z,13.30
2017-09-26T22:03:28.796Z,13.30
2017-09-26T22:05:57.855Z,13.30
2017-09-26T22:08:26.148Z,13.30
2017-09-26T22:10:54.617Z,13.30
2017-09-26T22:13:23.684Z,13.30
2017-09-26T22:15:52.021Z,13.30
2017-09-26T22:18:20.316Z,13.30
2017-09-26T22:20:48.719Z,13.30
2017-09-26T22:23:18.552Z,13.30
2017-09-26T22:25:46.955Z,13.30
2017-09-26T22:28:15.255Z,13.30
2017-09-26T22:30:43.659Z,13.30
2017-09-26T22:33:11.987Z,13.30
2017-09-26T22:35:40.327Z,13.40
2017-09-26T22:38:08.711Z,13.40
2017-09-26T22:40:37.163Z,13.30
2017-09-26T22:43:05.566Z,13.40
2017-09-26T22:45:33.964Z,13.30
2017-09-26T22:48:03.400Z,13.30
2017-09-26T22:50:31.723Z,13.20
2017-09-26T22:53:00.016Z,13.40
2017-09-26T22:55:28.348Z,13.30
2017-09-26T22:57:57.411Z,13.30
2017-09-26T23:00:25.769Z,13.30
2017-09-26T23:02:54.956Z,13.30
2017-09-26T23:05:23.264Z,13.30
2017-09-26T23:07:51.599Z,13.30
2017-09-26T23:10:20.664Z,13.30
2017-09-26T23:12:48.963Z,13.20
2017-09-26T23:15:17.286Z,13.20
2017-09-26T23:17:45.608Z,13.20
2017-09-26T23:20:13.999Z,13.20
2017-09-26T23:22:42.291Z,13.30
2017-09-26T23:25:10.647Z,13.40
2017-09-26T23:27:39.723Z,13.30
2017-09-26T23:30:08.214Z,13.30
2017-09-26T23:32:36.727Z,13.30
2017-09-26T23:35:06.079Z,13.40
2017-09-26T23:37:35.287Z,13.30
2017-09-26T23:40:03.619Z,13.30
2017-09-26T23:42:31.943Z,13.40
2017-09-26T23:45:00.292Z,13.40
2017-09-26T23:47:28.625Z,13.30
2017-09-26T23:49:57.720Z,13.30
2017-09-26T23:52:26.020Z,13.30
2017-09-26T23:54:54.355Z,13.30
2017-09-26T23:57:23.431Z,13.30
2017-09-26T23:59:51.759Z,13.30
